| Date | Time | Temp. (oF) | Dew Point (oF) | Rel. Hum. (%) | Press. (in.) | Wind Dir. | Wind Speed (mph) | Hourly Rainfall (in.) |
|
|---|---|---|---|---|---|---|---|---|---|
| 1 | 07/23 | 00:00 | 71 | 70 | 98 | 29.80 | S | 0 | 0.00 |
| 2 | 07/22 | 23:00 | 72 | 70 | 95 | 29.81 | SE | 2 | 0.06 |
| 3 | 07/22 | 22:00 | 73 | 70 | 92 | 29.82 | ENE | 1 | 0.05 |
| 4 | 07/22 | 21:00 | 74 | 70 | 88 | 29.77 | ESE | 1 | 0.00 |
| 5 | 07/22 | 20:00 | 79 | 70 | 76 | 29.75 | NW | 8 | 0.00 |
| 6 | 07/22 | 19:00 | 83 | 72 | 70 | 29.71 | S | 5 | 0.00 |
| 7 | 07/22 | 18:00 | 85 | 72 | 67 | 29.72 | SSW | 8 | 0.00 |
| 8 | 07/22 | 17:00 | 86 | 74 | 69 | 29.70 | S | 7 | 0.00 |
| 9 | 07/22 | 16:00 | 84 | 78 | 83 | 29.70 | S | 3 | 0.00 |
| 10 | 07/22 | 15:00 | 77 | 73 | 89 | 29.74 | WSW | 5 | 0.13 |
| 11 | 07/22 | 14:00 | 84 | 73 | 71 | 29.74 | S | 9 | 0.00 |
| 12 | 07/22 | 13:00 | 83 | 74 | 75 | 29.76 | SSW | 4 | 0.00 |
| 13 | 07/22 | 12:00 | 81 | 73 | 79 | 29.77 | SSW | 5 | 0.00 |
| 14 | 07/22 | 11:00 | 80 | 75 | 86 | 29.78 | S | 3 | 0.00 |
| 15 | 07/22 | 10:00 | 77 | 74 | 92 | 29.77 | S | 4 | 0.00 |
| 16 | 07/22 | 09:00 | 75 | 74 | 97 | 29.78 | SE | 2 | -0.13 |
| 17 | miss | miss | miss | miss | miss | miss | miss | miss | |
| 18 | 07/21 | 16:50 | 87 | 76 | 72 | 29.72 | SSE | 14 | 0.00 |
| 19 | miss | miss | miss | miss | miss | miss | miss | miss | |
| 20 | 07/21 | 16:48 | 87 | 77 | 73 | 29.73 | SSE | 19 | 0.00 |
| 21 | miss | miss | miss | miss | miss | miss | miss | miss | |
| 22 | 07/21 | 16:46 | 87 | 76 | 72 | 29.72 | S | 10 | 0.00 |
| 23 | miss | miss | miss | miss | miss | miss | miss | miss | |
| 24 | 07/21 | 16:44 | 87 | 76 | 72 | 29.73 | S | 5 | 0.00 |
| 25 | miss | miss | miss | miss | miss | miss | miss | miss | |
| 26 | 07/21 | 16:43 | 87 | 76 | 72 | 29.73 | SSW | 17 | 0.00 |
| 27 | miss | miss | miss | miss | miss | miss | miss | miss | |
| 28 | 07/21 | 16:43 | 87 | 76 | 72 | 29.73 | SSW | 17 | 0.00 |
| 29 | miss | miss | miss | miss | miss | miss | miss | miss | |
| 30 | 07/21 | 16:43 | 87 | 76 | 72 | 29.73 | SSW | 17 | 0.00 |
| 31 | miss | miss | miss | miss | miss | miss | miss | miss | |
| 32 | 07/21 | 16:43 | 87 | 76 | 72 | 29.73 | SSW | 17 | 0.00 |
| 33 | 07/21 | 16:00 | 87 | 77 | 73 | 29.75 | SSW | 3 | 0.00 |
| 34 | 07/21 | 15:00 | 88 | 73 | 63 | 29.78 | SSW | 10 | 0.00 |
| 35 | 07/21 | 14:00 | 88 | 74 | 64 | 29.81 | S | 7 | 0.00 |
| 36 | 07/21 | 13:00 | 86 | 73 | 67 | 29.83 | E | 4 | 0.00 |
| 37 | 07/21 | 12:00 | 84 | 73 | 72 | 29.86 | SSW | 4 | 0.00 |
| 38 | 07/21 | 11:00 | 81 | 74 | 80 | 29.87 | SSW | 3 | 0.00 |
| 39 | 07/21 | 10:00 | 77 | 73 | 88 | 29.89 | S | 7 | 0.00 |
| 40 | 07/21 | 09:00 | 75 | 72 | 92 | 29.89 | S | 5 | 0.00 |
| 41 | 07/21 | 08:00 | 74 | 72 | 96 | 29.90 | S | 3 | 0.00 |
| 42 | 07/21 | 07:00 | 72 | 71 | 97 | 29.90 | SSW | 3 | 0.00 |
| 43 | 07/21 | 06:00 | 72 | 70 | 96 | 29.89 | SSW | 2 | 0.00 |
| 44 | 07/21 | 05:00 | 72 | 70 | 94 | 29.90 | SSW | 5 | 0.00 |
| 45 | 07/21 | 04:00 | 72 | 69 | 93 | 29.91 | S | 3 | 0.00 |
| 46 | 07/21 | 03:00 | 73 | 69 | 88 | 29.92 | SSW | 6 | 0.00 |
| 47 | 07/21 | 02:00 | 74 | 68 | 84 | 29.93 | S | 3 | 0.00 |
| 48 | 07/21 | 01:00 | 74 | 68 | 83 | 29.94 | S | 5 | 0.00 |
| 49 | 07/21 | 00:00 | 74 | 67 | 79 | 29.95 | S | 7 | 0.00 |
| 50 | 07/20 | 23:00 | 74 | 64 | 72 | 29.96 | S | 4 | 0.00 |
| 51 | 07/20 | 22:00 | 75 | 64 | 71 | 29.97 | SSW | 5 | 0.00 |
| 52 | 07/20 | 21:00 | 76 | 63 | 66 | 29.96 | S | 3 | 0.00 |
| 53 | 07/20 | 20:00 | 78 | 63 | 62 | 29.96 | S | 6 | 0.00 |
| 54 | 07/20 | 19:00 | 81 | 64 | 57 | 29.95 | SSE | 6 | 0.00 |
| 55 | 07/20 | 18:00 | 82 | 64 | 56 | 29.95 | S | 8 | 0.00 |
| 56 | 07/20 | 17:00 | 83 | 64 | 54 | 29.95 | SSE | 11 | 0.00 |
| 57 | 07/20 | 16:00 | 84 | 62 | 49 | 29.97 | S | 7 | 0.00 |
| 58 | 07/20 | 15:00 | 84 | 63 | 50 | 29.98 | SW | 8 | 0.00 |
| 59 | 07/20 | 14:00 | 82 | 60 | 49 | 30.00 | SE | 4 | 0.00 |
| 60 | 07/20 | 13:00 | 82 | 61 | 50 | 30.01 | S | 5 | 0.00 |
| 61 | 07/20 | 12:00 | 81 | 57 | 45 | 30.04 | SSW | 1 | 0.00 |
| 62 | 07/20 | 11:00 | 78 | 61 | 58 | 30.05 | SW | 2 | 0.00 |
| 63 | 07/20 | 10:00 | 74 | 63 | 70 | 30.06 | WSW | 3 | 0.00 |
| 64 | 07/20 | 09:00 | 69 | 63 | 83 | 30.06 | WNW | 1 | 0.00 |
| 65 | 07/20 | 08:00 | 61 | 60 | 100 | 30.05 | SSW | 0 | 0.00 |